createdAt,value
2023-01-11T00:02:15.157Z,5.70
2023-01-11T00:05:19.567Z,5.70
2023-01-11T00:08:25.347Z,5.70
2023-01-11T00:11:31.024Z,5.70
2023-01-11T00:14:35.773Z,5.70
2023-01-11T00:17:41.474Z,5.70
2023-01-11T00:20:45.703Z,5.70
2023-01-11T00:23:50.599Z,5.70
2023-01-11T00:26:54.964Z,5.60
2023-01-11T00:29:59.519Z,5.70
2023-01-11T00:33:04.013Z,5.70
2023-01-11T00:36:09.074Z,5.70
2023-01-11T00:39:13.678Z,5.70
2023-01-11T00:42:36.401Z,5.60
2023-01-11T00:46:19.649Z,5.70
2023-01-11T00:49:24.131Z,5.60
2023-01-11T00:52:28.602Z,5.70
2023-01-11T00:55:33.871Z,5.70
2023-01-11T00:58:38.350Z,5.60
2023-01-11T01:01:42.843Z,5.70
2023-01-11T01:04:47.296Z,5.60
2023-01-11T01:07:51.667Z,5.60
2023-01-11T01:10:55.869Z,5.50
2023-01-11T01:14:18.839Z,5.40
2023-01-11T01:17:23.560Z,5.40
2023-01-11T01:20:28.444Z,5.40
2023-01-11T01:23:33.207Z,5.40
2023-01-11T01:26:37.590Z,5.40
2023-01-11T01:29:41.868Z,5.40
2023-01-11T01:32:46.143Z,5.40
2023-01-11T01:35:51.005Z,5.40
2023-01-11T01:38:55.419Z,5.40
2023-01-11T01:42:00.249Z,5.40
2023-01-11T01:45:20.107Z,5.40
2023-01-11T01:48:26.805Z,5.40
2023-01-11T01:51:54.869Z,5.30
2023-01-11T01:55:02.914Z,5.30
2023-01-11T01:58:12.452Z,5.40
2023-01-11T02:01:36.225Z,5.30
2023-01-11T02:04:46.598Z,5.30
2023-01-11T02:07:51.543Z,5.30
2023-01-11T02:10:56.260Z,5.30
2023-01-11T02:14:04.043Z,5.30
2023-01-11T02:17:09.343Z,5.20
2023-01-11T02:20:26.131Z,5.30
2023-01-11T02:23:48.998Z,5.30
2023-01-11T02:27:11.148Z,5.30
2023-01-11T02:30:35.547Z,5.30
2023-01-11T02:33:58.204Z,5.30
2023-01-11T02:37:25.993Z,5.40
2023-01-11T02:40:48.862Z,5.40
2023-01-11T02:44:20.770Z,5.40
2023-01-11T02:47:39.024Z,5.40
2023-01-11T02:51:02.346Z,5.50
2023-01-11T02:54:09.199Z,5.40
2023-01-11T02:57:15.482Z,5.40
2023-01-11T03:00:21.484Z,5.40
2023-01-11T03:03:29.626Z,5.40
2023-01-11T03:06:35.399Z,5.40
2023-01-11T03:09:39.743Z,5.40
2023-01-11T03:12:59.562Z,5.50
2023-01-11T03:16:17.414Z,5.40
2023-01-11T03:19:39.654Z,5.50
2023-01-11T03:23:04.466Z,5.40
2023-01-11T03:26:33.517Z,5.40
2023-01-11T03:29:56.241Z,5.50
2023-01-11T03:33:12.803Z,5.40
2023-01-11T03:36:43.258Z,5.50
2023-01-11T03:39:52.028Z,5.40
2023-01-11T03:43:12.934Z,5.60
2023-01-11T03:46:24.291Z,5.50
2023-01-11T03:49:41.992Z,5.50
2023-01-11T03:52:46.955Z,5.50
2023-01-11T03:55:57.495Z,5.60
2023-01-11T03:59:02.058Z,5.60
2023-01-11T04:02:22.304Z,5.60
2023-01-11T04:05:26.603Z,5.50
2023-01-11T04:08:31.316Z,5.50
2023-01-11T04:11:36.117Z,5.50
2023-01-11T04:14:40.603Z,5.60
2023-01-11T04:17:45.097Z,5.70
2023-01-11T04:20:49.374Z,5.70
2023-01-11T04:23:53.695Z,5.70
2023-01-11T04:26:57.932Z,5.70
2023-01-11T04:30:02.832Z,5.70
2023-01-11T04:33:07.082Z,5.70
2023-01-11T04:36:11.946Z,5.70
2023-01-11T04:39:16.017Z,5.70
2023-01-11T04:42:20.346Z,5.70
2023-01-11T04:45:24.766Z,5.70
2023-01-11T04:48:29.107Z,5.80
2023-01-11T04:51:33.345Z,5.80
2023-01-11T04:54:38.200Z,5.70
2023-01-11T04:57:44.399Z,5.90
2023-01-11T05:00:48.737Z,5.80
2023-01-11T05:03:53.226Z,5.80
2023-01-11T05:06:57.764Z,5.80
2023-01-11T05:10:02.590Z,5.80
2023-01-11T05:13:06.954Z,6.00
2023-01-11T05:16:20.357Z,5.90
2023-01-11T05:19:24.959Z,5.90
2023-01-11T05:22:29.311Z,6.00
2023-01-11T05:25:33.617Z,6.00
2023-01-11T05:28:38.234Z,6.10
2023-01-11T05:31:43.424Z,6.10
2023-01-11T05:34:47.728Z,6.10
2023-01-11T05:37:52.017Z,6.20
2023-01-11T05:41:01.802Z,6.20
2023-01-11T05:44:29.375Z,6.20
2023-01-11T05:47:33.710Z,6.20
2023-01-11T05:50:38.123Z,6.30
2023-01-11T05:53:42.503Z,6.30
2023-01-11T05:56:47.176Z,6.30
2023-01-11T05:59:51.942Z,6.40
2023-01-11T06:02:56.581Z,6.40
2023-01-11T06:06:00.701Z,6.50
2023-01-11T06:09:05.269Z,6.40
2023-01-11T06:12:09.854Z,6.50
2023-01-11T06:15:14.302Z,6.60
2023-01-11T06:18:18.883Z,6.60
2023-01-11T06:21:24.027Z,6.70
2023-01-11T06:24:28.641Z,6.70
2023-01-11T06:27:33.017Z,6.70
2023-01-11T06:30:38.049Z,6.80
2023-01-11T06:33:42.750Z,6.70
2023-01-11T06:36:47.462Z,6.90
2023-01-11T06:39:51.741Z,6.90
2023-01-11T06:42:56.247Z,6.80
2023-01-11T06:46:00.766Z,6.80
2023-01-11T06:49:05.214Z,6.80
2023-01-11T06:52:09.655Z,6.80
2023-01-11T06:55:13.966Z,7.00
2023-01-11T06:58:18.690Z,7.00
2023-01-11T07:01:24.953Z,7.00
2023-01-11T07:04:30.885Z,7.10
2023-01-11T07:07:35.695Z,7.00
2023-01-11T07:10:40.330Z,7.10
2023-01-11T07:13:44.323Z,7.00
2023-01-11T07:16:48.539Z,7.10
2023-01-11T07:19:52.973Z,7.00
2023-01-11T07:22:59.426Z,7.20
2023-01-11T07:26:03.730Z,7.20
2023-01-11T07:29:09.221Z,7.30
2023-01-11T07:32:13.935Z,7.30
2023-01-11T07:35:18.212Z,7.10
2023-01-11T07:38:23.012Z,7.20
2023-01-11T07:41:45.891Z,7.30
2023-01-11T07:44:50.447Z,7.20
2023-01-11T07:47:55.010Z,7.40
2023-01-11T07:50:59.487Z,7.20
2023-01-11T07:54:04.009Z,7.40
2023-01-11T07:57:08.509Z,7.50
2023-01-11T08:00:14.413Z,7.50
2023-01-11T08:03:19.377Z,7.40
2023-01-11T08:06:24.174Z,7.60
2023-01-11T08:09:28.645Z,7.50
2023-01-11T08:12:51.733Z,7.60
2023-01-11T08:15:58.012Z,7.60
2023-01-11T08:19:02.287Z,7.60
2023-01-11T08:22:06.824Z,7.60
2023-01-11T08:25:11.616Z,7.70
2023-01-11T08:28:15.809Z,7.80
2023-01-11T08:31:20.529Z,7.70
2023-01-11T08:34:25.681Z,7.70
2023-01-11T08:37:30.350Z,7.70
2023-01-11T08:40:35.166Z,7.90
2023-01-11T08:43:41.580Z,7.80
2023-01-11T08:46:45.963Z,7.90
2023-01-11T08:49:51.037Z,7.90
2023-01-11T08:52:55.458Z,7.80
2023-01-11T08:55:59.885Z,7.90
2023-01-11T08:59:05.567Z,8.00
2023-01-11T09:02:11.989Z,7.80
2023-01-11T09:05:18.296Z,7.90
2023-01-11T09:08:24.405Z,8.00
2023-01-11T09:11:47.494Z,8.00
2023-01-11T09:14:51.876Z,8.00
2023-01-11T09:17:56.281Z,7.90
2023-01-11T09:21:00.559Z,7.90
2023-01-11T09:24:05.101Z,7.90
2023-01-11T09:27:11.854Z,8.00
2023-01-11T09:30:19.599Z,8.00
2023-01-11T09:33:24.002Z,8.10
2023-01-11T09:36:29.041Z,8.10
2023-01-11T09:39:34.957Z,8.10
2023-01-11T09:42:40.554Z,8.30
2023-01-11T09:45:46.849Z,8.30
2023-01-11T09:48:54.973Z,8.30
2023-01-11T09:52:30.339Z,8.30
2023-01-11T09:55:42.384Z,8.30
2023-01-11T09:59:20.688Z,8.40
2023-01-11T10:02:57.253Z,8.30
2023-01-11T10:06:10.115Z,8.40
2023-01-11T10:18:43.054Z,8.40
2023-01-11T10:21:19.067Z,8.30
2023-01-11T10:24:34.037Z,8.40
2023-01-11T10:27:45.522Z,8.50
2023-01-11T10:31:15.528Z,8.60
2023-01-11T10:34:39.545Z,8.50
2023-01-11T10:38:02.303Z,8.50
2023-01-11T10:41:21.035Z,8.50
2023-01-11T10:44:48.667Z,8.60
2023-01-11T10:48:05.198Z,8.70
2023-01-11T10:51:13.951Z,8.60
2023-01-11T10:54:33.334Z,8.80
2023-01-11T10:58:07.316Z,8.80
2023-01-11T11:01:29.189Z,8.80
2023-01-11T11:04:58.788Z,8.90
2023-01-11T11:08:42.892Z,8.90
2023-01-11T11:12:28.338Z,8.80
2023-01-11T11:15:57.607Z,8.80
2023-01-11T11:19:04.864Z,8.90
2023-01-11T11:25:35.887Z,9.00
2023-01-11T11:29:04.110Z,9.00
2023-01-11T11:32:21.894Z,9.30
2023-01-11T11:35:42.654Z,9.30
2023-01-11T11:39:10.720Z,9.30
2023-01-11T11:42:18.010Z,9.10
2023-01-11T11:45:23.869Z,9.20
2023-01-11T11:48:32.433Z,9.10
2023-01-11T11:51:38.537Z,9.10
2023-01-11T11:54:55.600Z,9.10
2023-01-11T11:58:05.619Z,9.10
2023-01-11T12:01:22.660Z,9.00
2023-01-11T12:04:40.276Z,9.00
2023-01-11T12:07:54.876Z,9.10
2023-01-11T12:11:01.322Z,9.10
2023-01-11T12:14:11.627Z,9.10
2023-01-11T12:17:23.242Z,9.20
2023-01-11T12:20:34.016Z,9.10
2023-01-11T12:23:38.494Z,9.10
2023-01-11T12:27:00.767Z,9.00
2023-01-11T12:30:23.577Z,9.00
2023-01-11T12:33:30.850Z,9.10
2023-01-11T12:37:27.313Z,9.10
2023-01-11T12:40:53.451Z,9.10
2023-01-11T12:44:20.276Z,9.10
2023-01-11T12:48:12.600Z,9.10
2023-01-11T12:51:54.963Z,9.10
2023-01-11T12:55:02.114Z,9.10
2023-01-11T12:58:23.018Z,9.00
2023-01-11T13:01:53.033Z,9.10
2023-01-11T13:05:09.377Z,9.10
2023-01-11T13:08:20.585Z,9.10
2023-01-11T13:11:37.622Z,9.10
2023-01-11T13:14:54.839Z,9.10
2023-01-11T13:18:02.650Z,9.20
2023-01-11T13:21:28.496Z,9.10
2023-01-11T13:24:33.723Z,9.10
2023-01-11T13:27:40.138Z,9.10
2023-01-11T13:30:46.258Z,9.10
2023-01-11T13:33:58.415Z,9.20
2023-01-11T13:37:16.329Z,9.10
2023-01-11T13:40:30.651Z,9.10
2023-01-11T13:43:42.165Z,9.10
2023-01-11T13:46:50.038Z,9.10
2023-01-11T13:50:15.712Z,9.10
2023-01-11T13:53:28.599Z,9.10
2023-01-11T13:56:38.702Z,9.00
2023-01-11T13:59:51.245Z,9.00
2023-01-11T14:03:36.773Z,9.00
2023-01-11T14:06:56.258Z,8.90
2023-01-11T14:10:09.514Z,8.90
2023-01-11T14:14:07.063Z,8.90
2023-01-11T14:17:36.516Z,8.70
2023-01-11T14:21:04.116Z,8.80
2023-01-11T14:24:11.167Z,8.70
2023-01-11T14:27:40.177Z,8.70
2023-01-11T14:31:03.308Z,8.60
2023-01-11T14:34:34.064Z,8.50
2023-01-11T14:37:55.974Z,8.60
2023-01-11T14:41:25.511Z,8.60
2023-01-11T14:44:45.129Z,8.60
2023-01-11T14:47:58.716Z,8.50
2023-01-11T14:51:18.279Z,8.50
2023-01-11T14:54:44.123Z,8.60
2023-01-11T14:57:55.304Z,8.60
2023-01-11T15:00:59.947Z,8.60
2023-01-11T15:04:04.957Z,8.50
2023-01-11T15:07:31.150Z,8.60
2023-01-11T15:10:36.493Z,8.50
2023-01-11T15:13:49.448Z,8.50
2023-01-11T15:17:17.019Z,8.50
2023-01-11T15:20:23.019Z,8.40
2023-01-11T15:23:29.013Z,8.40
2023-01-11T15:26:48.446Z,8.40
2023-01-11T15:29:57.962Z,8.40
2023-01-11T15:33:27.654Z,8.30
2023-01-11T15:36:54.217Z,8.20
2023-01-11T15:40:16.034Z,8.20
2023-01-11T15:43:46.304Z,8.10
2023-01-11T15:46:56.890Z,8.10
2023-01-11T15:50:23.289Z,8.00
2023-01-11T15:53:49.022Z,8.00
2023-01-11T15:57:14.992Z,8.00
2023-01-11T16:00:22.274Z,8.00
2023-01-11T16:03:57.918Z,7.90
2023-01-11T16:07:15.587Z,7.80
2023-01-11T16:11:14.102Z,7.90
2023-01-11T16:14:39.765Z,7.80
2023-01-11T16:17:47.103Z,7.80
2023-01-11T16:21:07.447Z,7.70
2023-01-11T16:24:18.770Z,7.70
2023-01-11T16:27:27.466Z,7.70
2023-01-11T16:30:31.897Z,7.70
2023-01-11T16:33:36.115Z,7.70
2023-01-11T16:36:41.633Z,7.60
2023-01-11T16:39:48.003Z,7.50
2023-01-11T16:43:05.171Z,7.60
2023-01-11T16:46:35.632Z,7.60
2023-01-11T16:49:43.106Z,7.60
2023-01-11T16:52:56.498Z,7.60
2023-01-11T16:56:08.014Z,7.60
2023-01-11T16:59:15.440Z,7.60
2023-01-11T17:02:32.723Z,7.60
2023-01-11T17:05:37.064Z,7.60
2023-01-11T17:08:50.555Z,7.60
2023-01-11T17:11:56.551Z,7.60
2023-01-11T17:15:30.377Z,7.60
2023-01-11T17:18:37.247Z,7.60
2023-01-11T17:21:48.287Z,7.50
2023-01-11T17:25:01.573Z,7.60
2023-01-11T17:28:13.401Z,7.50
2023-01-11T17:31:32.864Z,7.50
2023-01-11T17:34:38.976Z,7.40
2023-01-11T17:37:49.438Z,7.40
2023-01-11T17:40:58.580Z,7.40
2023-01-11T17:44:22.281Z,7.40
2023-01-11T17:47:27.716Z,7.40
2023-01-11T17:50:37.888Z,7.40
2023-01-11T17:53:50.397Z,7.30
2023-01-11T17:56:58.829Z,7.30
2023-01-11T18:00:17.888Z,7.30
2023-01-11T18:03:22.397Z,7.20
2023-01-11T18:06:45.036Z,7.30
2023-01-11T18:09:57.204Z,7.20
2023-01-11T18:13:02.236Z,7.20
2023-01-11T18:16:06.899Z,7.20
2023-01-11T18:19:33.510Z,7.10
2023-01-11T18:22:41.847Z,7.10
2023-01-11T18:25:46.578Z,7.10
2023-01-11T18:28:51.328Z,7.20
2023-01-11T18:31:55.650Z,7.10
2023-01-11T18:35:00.207Z,7.10
2023-01-11T18:38:13.564Z,7.10
2023-01-11T18:41:36.251Z,7.00
2023-01-11T18:44:43.495Z,7.00
2023-01-11T18:47:47.931Z,6.90
2023-01-11T18:50:54.432Z,6.90
2023-01-11T18:53:58.906Z,6.80
2023-01-11T18:57:03.361Z,6.80
2023-01-11T19:00:08.369Z,6.70
2023-01-11T19:06:22.761Z,6.60
2023-01-11T19:09:27.073Z,6.60
2023-01-11T19:12:31.571Z,6.60
2023-01-11T19:15:36.124Z,6.60
2023-01-11T19:18:40.399Z,6.50
2023-01-11T19:21:44.812Z,6.50
2023-01-11T19:24:49.234Z,6.60
2023-01-11T19:27:54.977Z,6.60
2023-01-11T19:30:59.696Z,6.60
2023-01-11T19:34:04.646Z,6.60
2023-01-11T19:37:09.098Z,6.50
2023-01-11T19:40:13.802Z,6.50
2023-01-11T19:43:18.304Z,6.50
2023-01-11T19:46:31.476Z,6.50
2023-01-11T19:49:36.617Z,6.50
2023-01-11T19:52:41.244Z,6.50
2023-01-11T19:55:45.947Z,6.80
2023-01-11T19:58:50.286Z,6.80
2023-01-11T20:01:54.444Z,6.90
2023-01-11T20:04:58.846Z,6.80
2023-01-11T20:08:03.514Z,6.80
2023-01-11T20:11:10.662Z,6.80
2023-01-11T20:14:16.798Z,6.80
2023-01-11T20:17:21.439Z,6.80
2023-01-11T20:20:25.835Z,6.70
2023-01-11T20:23:31.217Z,6.70
2023-01-11T20:26:35.454Z,6.70
2023-01-11T20:29:40.275Z,6.70
2023-01-11T20:32:44.964Z,6.60
2023-01-11T20:35:49.455Z,6.70
2023-01-11T20:38:55.331Z,6.70
2023-01-11T20:42:02.229Z,6.80
2023-01-11T20:45:07.108Z,6.80
2023-01-11T20:48:11.599Z,6.90
2023-01-11T20:51:16.281Z,6.90
2023-01-11T20:54:20.888Z,6.90
2023-01-11T20:57:29.151Z,6.90
2023-01-11T21:00:34.548Z,6.90
2023-01-11T21:03:39.033Z,6.90
2023-01-11T21:06:45.979Z,6.80
2023-01-11T21:09:50.350Z,6.80
2023-01-11T21:12:56.479Z,6.70
2023-01-11T21:16:08.226Z,6.70
2023-01-11T21:19:14.633Z,6.70
2023-01-11T21:22:19.033Z,6.60
2023-01-11T21:25:23.474Z,6.60
2023-01-11T21:28:27.978Z,6.60
2023-01-11T21:31:35.011Z,6.60
2023-01-11T21:34:39.397Z,6.50
2023-01-11T21:37:43.646Z,6.40
2023-01-11T21:40:48.065Z,6.40
2023-01-11T21:43:52.654Z,6.40
2023-01-11T21:46:57.539Z,6.30
2023-01-11T21:50:02.331Z,6.30
2023-01-11T21:53:06.645Z,6.20
2023-01-11T21:56:11.169Z,6.20
2023-01-11T21:59:16.049Z,6.20
2023-01-11T22:02:20.505Z,6.20
2023-01-11T22:05:24.955Z,6.20
2023-01-11T22:08:29.277Z,6.20
2023-01-11T22:11:33.564Z,6.30
2023-01-11T22:14:38.185Z,6.20
2023-01-11T22:17:43.263Z,6.20
2023-01-11T22:20:48.958Z,6.20
2023-01-11T22:23:54.716Z,6.20
2023-01-11T22:26:58.834Z,6.20
2023-01-11T22:30:03.425Z,6.20
2023-01-11T22:33:07.832Z,6.30
2023-01-11T22:36:11.990Z,6.30
2023-01-11T22:39:19.283Z,6.30
2023-01-11T22:42:23.894Z,6.20
2023-01-11T22:45:28.256Z,6.20
2023-01-11T22:48:32.788Z,6.20
2023-01-11T22:51:37.549Z,6.30
2023-01-11T22:54:42.590Z,6.20
2023-01-11T22:57:46.805Z,6.30
2023-01-11T23:00:51.247Z,6.50
2023-01-11T23:03:56.953Z,6.10
2023-01-11T23:07:01.704Z,6.20
2023-01-11T23:10:08.480Z,6.10
2023-01-11T23:13:31.128Z,6.10
2023-01-11T23:16:36.312Z,6.10
2023-01-11T23:19:41.754Z,6.00
2023-01-11T23:22:46.523Z,6.00
2023-01-11T23:25:54.405Z,6.10
2023-01-11T23:28:58.800Z,6.10
2023-01-11T23:32:03.428Z,6.20
2023-01-11T23:35:08.924Z,6.10
2023-01-11T23:38:13.598Z,6.20
2023-01-11T23:41:38.614Z,6.10
2023-01-11T23:44:43.171Z,6.10
2023-01-11T23:47:49.304Z,6.20
2023-01-11T23:50:53.591Z,6.20
2023-01-11T23:53:58.002Z,6.10
2023-01-11T23:57:03.593Z,6.20
